sensor_id;sensor_type;location;lat;lon;timestamp;P1;durP1;ratioP1;P2;durP2;ratioP2
78555;SDS011;67851;51.354;7.744;2023-07-16T00:01:53;4.65;;;1.90;;
78555;SDS011;67851;51.354;7.744;2023-07-16T00:04:19;4.10;;;1.83;;
78555;SDS011;67851;51.354;7.744;2023-07-16T00:06:45;8.35;;;1.45;;
78555;SDS011;67851;51.354;7.744;2023-07-16T00:09:11;2.30;;;1.60;;
78555;SDS011;67851;51.354;7.744;2023-07-16T00:11:37;3.78;;;1.65;;
78555;SDS011;67851;51.354;7.744;2023-07-16T00:14:02;4.00;;;1.60;;
78555;SDS011;67851;51.354;7.744;2023-07-16T00:16:28;4.65;;;1.92;;
78555;SDS011;67851;51.354;7.744;2023-07-16T00:18:53;6.85;;;1.58;;
78555;SDS011;67851;51.354;7.744;2023-07-16T00:21:19;2.72;;;1.30;;
78555;SDS011;67851;51.354;7.744;2023-07-16T00:23:45;3.28;;;1.40;;
78555;SDS011;67851;51.354;7.744;2023-07-16T00:26:12;2.92;;;1.65;;
78555;SDS011;67851;51.354;7.744;2023-07-16T00:28:39;9.07;;;1.65;;
78555;SDS011;67851;51.354;7.744;2023-07-16T00:31:05;3.92;;;1.80;;
78555;SDS011;67851;51.354;7.744;2023-07-16T00:33:30;2.55;;;1.73;;
78555;SDS011;67851;51.354;7.744;2023-07-16T00:35:56;5.68;;;1.55;;
78555;SDS011;67851;51.354;7.744;2023-07-16T00:38:21;2.88;;;1.48;;
78555;SDS011;67851;51.354;7.744;2023-07-16T00:40:47;4.85;;;1.80;;
78555;SDS011;67851;51.354;7.744;2023-07-16T00:43:12;5.10;;;1.73;;
78555;SDS011;67851;51.354;7.744;2023-07-16T00:45:39;3.75;;;1.70;;
78555;SDS011;67851;51.354;7.744;2023-07-16T00:48:07;6.22;;;1.52;;
78555;SDS011;67851;51.354;7.744;2023-07-16T00:50:34;5.28;;;1.85;;
78555;SDS011;67851;51.354;7.744;2023-07-16T00:53:01;19.38;;;2.08;;
78555;SDS011;67851;51.354;7.744;2023-07-16T00:55:29;10.95;;;1.85;;
78555;SDS011;67851;51.354;7.744;2023-07-16T00:57:56;2.65;;;1.52;;
78555;SDS011;67851;51.354;7.744;2023-07-16T01:00:32;5.40;;;1.65;;
78555;SDS011;67851;51.354;7.744;2023-07-16T01:02:59;2.83;;;1.65;;
78555;SDS011;67851;51.354;7.744;2023-07-16T01:05:30;9.02;;;1.65;;
78555;SDS011;67851;51.354;7.744;2023-07-16T01:08:09;4.03;;;1.60;;
78555;SDS011;67851;51.354;7.744;2023-07-16T01:10:36;5.18;;;1.40;;
78555;SDS011;67851;51.354;7.744;2023-07-16T01:13:03;4.45;;;1.48;;
78555;SDS011;67851;51.354;7.744;2023-07-16T01:15:30;3.35;;;1.55;;
78555;SDS011;67851;51.354;7.744;2023-07-16T01:17:55;5.75;;;1.42;;
78555;SDS011;67851;51.354;7.744;2023-07-16T01:20:21;6.25;;;1.80;;
78555;SDS011;67851;51.354;7.744;2023-07-16T01:25:49;2.38;;;1.35;;
78555;SDS011;67851;51.354;7.744;2023-07-16T01:30:53;6.53;;;2.20;;
78555;SDS011;67851;51.354;7.744;2023-07-16T01:33:20;6.50;;;2.13;;
78555;SDS011;67851;51.354;7.744;2023-07-16T01:35:47;5.78;;;2.00;;
78555;SDS011;67851;51.354;7.744;2023-07-16T01:38:14;5.32;;;1.90;;
78555;SDS011;67851;51.354;7.744;2023-07-16T01:40:41;5.55;;;1.90;;
78555;SDS011;67851;51.354;7.744;2023-07-16T01:43:07;4.13;;;2.13;;
78555;SDS011;67851;51.354;7.744;2023-07-16T01:45:32;7.43;;;2.33;;
78555;SDS011;67851;51.354;7.744;2023-07-16T01:48:05;6.20;;;2.55;;
78555;SDS011;67851;51.354;7.744;2023-07-16T01:50:54;6.35;;;2.28;;
78555;SDS011;67851;51.354;7.744;2023-07-16T01:53:20;6.15;;;1.92;;
78555;SDS011;67851;51.354;7.744;2023-07-16T01:55:45;6.45;;;2.05;;
78555;SDS011;67851;51.354;7.744;2023-07-16T01:58:11;6.07;;;1.80;;
78555;SDS011;67851;51.354;7.744;2023-07-16T02:00:36;4.88;;;2.10;;
78555;SDS011;67851;51.354;7.744;2023-07-16T02:03:02;4.25;;;1.88;;
78555;SDS011;67851;51.354;7.744;2023-07-16T02:05:31;5.50;;;2.22;;
78555;SDS011;67851;51.354;7.744;2023-07-16T02:07:56;4.85;;;2.20;;
78555;SDS011;67851;51.354;7.744;2023-07-16T02:10:22;6.53;;;1.95;;
78555;SDS011;67851;51.354;7.744;2023-07-16T02:12:47;4.78;;;1.80;;
78555;SDS011;67851;51.354;7.744;2023-07-16T02:15:13;6.70;;;2.05;;
78555;SDS011;67851;51.354;7.744;2023-07-16T02:17:41;4.18;;;1.70;;
78555;SDS011;67851;51.354;7.744;2023-07-16T02:20:08;5.93;;;1.98;;
78555;SDS011;67851;51.354;7.744;2023-07-16T02:22:37;4.70;;;1.90;;
78555;SDS011;67851;51.354;7.744;2023-07-16T02:25:03;11.00;;;2.13;;
78555;SDS011;67851;51.354;7.744;2023-07-16T02:27:29;4.63;;;1.67;;
78555;SDS011;67851;51.354;7.744;2023-07-16T02:29:54;9.65;;;2.20;;
78555;SDS011;67851;51.354;7.744;2023-07-16T02:32:20;6.15;;;1.90;;
78555;SDS011;67851;51.354;7.744;2023-07-16T02:34:46;11.07;;;2.00;;
78555;SDS011;67851;51.354;7.744;2023-07-16T02:37:11;6.93;;;1.52;;
78555;SDS011;67851;51.354;7.744;2023-07-16T02:39:38;6.47;;;1.80;;
78555;SDS011;67851;51.354;7.744;2023-07-16T02:42:04;3.97;;;1.63;;
78555;SDS011;67851;51.354;7.744;2023-07-16T02:44:30;5.95;;;2.10;;
78555;SDS011;67851;51.354;7.744;2023-07-16T02:46:56;4.85;;;1.98;;
78555;SDS011;67851;51.354;7.744;2023-07-16T02:49:21;5.63;;;1.90;;
78555;SDS011;67851;51.354;7.744;2023-07-16T02:51:47;4.97;;;1.95;;
78555;SDS011;67851;51.354;7.744;2023-07-16T02:54:12;8.18;;;1.85;;
78555;SDS011;67851;51.354;7.744;2023-07-16T02:56:38;11.65;;;2.08;;
78555;SDS011;67851;51.354;7.744;2023-07-16T02:59:03;7.97;;;2.40;;
78555;SDS011;67851;51.354;7.744;2023-07-16T03:01:29;5.43;;;1.95;;
78555;SDS011;67851;51.354;7.744;2023-07-16T03:03:55;9.80;;;1.92;;
78555;SDS011;67851;51.354;7.744;2023-07-16T03:06:22;7.35;;;2.10;;
78555;SDS011;67851;51.354;7.744;2023-07-16T03:08:50;9.45;;;1.80;;
78555;SDS011;67851;51.354;7.744;2023-07-16T03:11:16;7.30;;;1.80;;
78555;SDS011;67851;51.354;7.744;2023-07-16T03:13:42;6.88;;;2.38;;
78555;SDS011;67851;51.354;7.744;2023-07-16T03:16:08;4.78;;;1.63;;
78555;SDS011;67851;51.354;7.744;2023-07-16T03:18:34;6.03;;;2.00;;
78555;SDS011;67851;51.354;7.744;2023-07-16T03:20:59;6.28;;;2.10;;
78555;SDS011;67851;51.354;7.744;2023-07-16T03:23:25;6.00;;;1.80;;
78555;SDS011;67851;51.354;7.744;2023-07-16T03:25:51;4.47;;;1.60;;
78555;SDS011;67851;51.354;7.744;2023-07-16T03:28:17;7.43;;;2.15;;
78555;SDS011;67851;51.354;7.744;2023-07-16T03:30:49;4.43;;;1.67;;
78555;SDS011;67851;51.354;7.744;2023-07-16T03:33:16;4.13;;;1.65;;
78555;SDS011;67851;51.354;7.744;2023-07-16T03:35:42;6.97;;;1.70;;
78555;SDS011;67851;51.354;7.744;2023-07-16T03:38:09;6.15;;;1.95;;
78555;SDS011;67851;51.354;7.744;2023-07-16T03:40:35;6.82;;;2.00;;
78555;SDS011;67851;51.354;7.744;2023-07-16T03:43:01;6.82;;;2.08;;
78555;SDS011;67851;51.354;7.744;2023-07-16T03:45:26;5.18;;;1.70;;
78555;SDS011;67851;51.354;7.744;2023-07-16T03:47:52;4.00;;;2.00;;
78555;SDS011;67851;51.354;7.744;2023-07-16T03:50:18;5.32;;;1.73;;
78555;SDS011;67851;51.354;7.744;2023-07-16T03:52:44;7.82;;;1.88;;
78555;SDS011;67851;51.354;7.744;2023-07-16T03:55:10;4.88;;;1.75;;
78555;SDS011;67851;51.354;7.744;2023-07-16T03:57:35;7.22;;;1.88;;
78555;SDS011;67851;51.354;7.744;2023-07-16T04:00:04;5.57;;;1.77;;
78555;SDS011;67851;51.354;7.744;2023-07-16T04:02:47;4.07;;;1.70;;
78555;SDS011;67851;51.354;7.744;2023-07-16T04:05:16;3.85;;;1.42;;
78555;SDS011;67851;51.354;7.744;2023-07-16T04:07:42;7.68;;;2.00;;
78555;SDS011;67851;51.354;7.744;2023-07-16T04:10:07;4.68;;;1.75;;
78555;SDS011;67851;51.354;7.744;2023-07-16T04:12:34;16.80;;;2.55;;
78555;SDS011;67851;51.354;7.744;2023-07-16T04:15:00;5.75;;;1.90;;
78555;SDS011;67851;51.354;7.744;2023-07-16T04:17:25;4.65;;;1.63;;
78555;SDS011;67851;51.354;7.744;2023-07-16T04:19:51;7.90;;;2.08;;
78555;SDS011;67851;51.354;7.744;2023-07-16T04:22:16;2.70;;;1.50;;
78555;SDS011;67851;51.354;7.744;2023-07-16T04:24:42;4.47;;;1.70;;
78555;SDS011;67851;51.354;7.744;2023-07-16T04:27:08;7.85;;;1.85;;
78555;SDS011;67851;51.354;7.744;2023-07-16T04:29:34;6.43;;;1.83;;
78555;SDS011;67851;51.354;7.744;2023-07-16T04:31:59;8.45;;;1.98;;
78555;SDS011;67851;51.354;7.744;2023-07-16T04:34:25;7.63;;;1.80;;
78555;SDS011;67851;51.354;7.744;2023-07-16T04:36:50;4.13;;;2.10;;
78555;SDS011;67851;51.354;7.744;2023-07-16T04:39:16;10.00;;;1.85;;
78555;SDS011;67851;51.354;7.744;2023-07-16T04:41:41;5.60;;;1.83;;
78555;SDS011;67851;51.354;7.744;2023-07-16T04:44:07;7.10;;;2.20;;
78555;SDS011;67851;51.354;7.744;2023-07-16T04:46:32;8.98;;;2.30;;
78555;SDS011;67851;51.354;7.744;2023-07-16T04:48:58;8.00;;;1.77;;
78555;SDS011;67851;51.354;7.744;2023-07-16T04:51:28;5.18;;;1.80;;
78555;SDS011;67851;51.354;7.744;2023-07-16T04:53:54;4.50;;;1.67;;
78555;SDS011;67851;51.354;7.744;2023-07-16T04:56:20;6.70;;;1.90;;
78555;SDS011;67851;51.354;7.744;2023-07-16T04:58:45;7.45;;;2.22;;
78555;SDS011;67851;51.354;7.744;2023-07-16T05:01:11;6.68;;;2.00;;
78555;SDS011;67851;51.354;7.744;2023-07-16T05:03:36;6.25;;;1.60;;
78555;SDS011;67851;51.354;7.744;2023-07-16T05:06:02;8.07;;;1.88;;
78555;SDS011;67851;51.354;7.744;2023-07-16T05:08:28;7.15;;;1.77;;
78555;SDS011;67851;51.354;7.744;2023-07-16T05:10:54;5.50;;;1.85;;
78555;SDS011;67851;51.354;7.744;2023-07-16T05:13:19;6.32;;;2.22;;
78555;SDS011;67851;51.354;7.744;2023-07-16T05:15:45;8.32;;;2.08;;
78555;SDS011;67851;51.354;7.744;2023-07-16T05:18:10;7.97;;;2.42;;
78555;SDS011;67851;51.354;7.744;2023-07-16T05:20:36;7.85;;;2.42;;
78555;SDS011;67851;51.354;7.744;2023-07-16T05:23:01;6.28;;;1.88;;
78555;SDS011;67851;51.354;7.744;2023-07-16T05:25:27;8.10;;;2.10;;
78555;SDS011;67851;51.354;7.744;2023-07-16T05:27:54;5.90;;;2.10;;
78555;SDS011;67851;51.354;7.744;2023-07-16T05:30:20;7.57;;;1.95;;
78555;SDS011;67851;51.354;7.744;2023-07-16T05:32:46;6.35;;;2.13;;
78555;SDS011;67851;51.354;7.744;2023-07-16T05:35:11;9.40;;;2.47;;
78555;SDS011;67851;51.354;7.744;2023-07-16T05:37:37;5.68;;;2.15;;
78555;SDS011;67851;51.354;7.744;2023-07-16T05:40:02;6.47;;;2.08;;
78555;SDS011;67851;51.354;7.744;2023-07-16T05:42:28;5.20;;;1.80;;
78555;SDS011;67851;51.354;7.744;2023-07-16T05:44:54;5.82;;;2.30;;
78555;SDS011;67851;51.354;7.744;2023-07-16T05:47:20;8.93;;;3.05;;
78555;SDS011;67851;51.354;7.744;2023-07-16T05:49:45;8.07;;;2.05;;
78555;SDS011;67851;51.354;7.744;2023-07-16T05:52:11;6.07;;;2.00;;
78555;SDS011;67851;51.354;7.744;2023-07-16T05:54:37;5.28;;;1.70;;
78555;SDS011;67851;51.354;7.744;2023-07-16T05:57:03;12.93;;;2.10;;
78555;SDS011;67851;51.354;7.744;2023-07-16T05:59:29;8.20;;;2.13;;
78555;SDS011;67851;51.354;7.744;2023-07-16T06:01:54;7.03;;;1.83;;
78555;SDS011;67851;51.354;7.744;2023-07-16T06:04:23;8.32;;;2.22;;
78555;SDS011;67851;51.354;7.744;2023-07-16T06:06:48;6.10;;;2.63;;
78555;SDS011;67851;51.354;7.744;2023-07-16T06:09:14;7.85;;;2.40;;
78555;SDS011;67851;51.354;7.744;2023-07-16T06:11:39;10.95;;;3.10;;
78555;SDS011;67851;51.354;7.744;2023-07-16T06:14:05;12.25;;;2.42;;
78555;SDS011;67851;51.354;7.744;2023-07-16T06:16:30;5.95;;;2.38;;
78555;SDS011;67851;51.354;7.744;2023-07-16T06:18:56;9.70;;;2.78;;
78555;SDS011;67851;51.354;7.744;2023-07-16T06:21:21;6.78;;;2.33;;
78555;SDS011;67851;51.354;7.744;2023-07-16T06:23:47;9.23;;;2.58;;
78555;SDS011;67851;51.354;7.744;2023-07-16T06:26:12;7.45;;;2.70;;
78555;SDS011;67851;51.354;7.744;2023-07-16T06:28:38;7.65;;;2.88;;
78555;SDS011;67851;51.354;7.744;2023-07-16T06:31:03;8.07;;;2.75;;
78555;SDS011;67851;51.354;7.744;2023-07-16T06:33:29;7.55;;;3.28;;
78555;SDS011;67851;51.354;7.744;2023-07-16T06:35:54;6.68;;;2.97;;
78555;SDS011;67851;51.354;7.744;2023-07-16T06:38:20;11.40;;;3.63;;
78555;SDS011;67851;51.354;7.744;2023-07-16T06:40:46;9.27;;;3.88;;
78555;SDS011;67851;51.354;7.744;2023-07-16T06:43:15;11.90;;;3.10;;
78555;SDS011;67851;51.354;7.744;2023-07-16T06:45:41;8.50;;;3.42;;
78555;SDS011;67851;51.354;7.744;2023-07-16T06:48:06;7.07;;;2.72;;
78555;SDS011;67851;51.354;7.744;2023-07-16T06:50:32;9.77;;;2.95;;
78555;SDS011;67851;51.354;7.744;2023-07-16T06:52:57;8.77;;;2.90;;
78555;SDS011;67851;51.354;7.744;2023-07-16T06:55:23;6.78;;;2.85;;
78555;SDS011;67851;51.354;7.744;2023-07-16T06:57:50;9.80;;;3.10;;
78555;SDS011;67851;51.354;7.744;2023-07-16T07:00:15;8.52;;;3.33;;
78555;SDS011;67851;51.354;7.744;2023-07-16T07:02:41;8.98;;;3.17;;
78555;SDS011;67851;51.354;7.744;2023-07-16T07:05:07;6.82;;;2.88;;
78555;SDS011;67851;51.354;7.744;2023-07-16T07:07:32;4.78;;;3.00;;
78555;SDS011;67851;51.354;7.744;2023-07-16T07:09:59;7.10;;;3.13;;
78555;SDS011;67851;51.354;7.744;2023-07-16T07:12:25;8.40;;;3.17;;
78555;SDS011;67851;51.354;7.744;2023-07-16T07:14:52;7.38;;;3.28;;
78555;SDS011;67851;51.354;7.744;2023-07-16T07:17:17;7.93;;;2.88;;
78555;SDS011;67851;51.354;7.744;2023-07-16T07:19:43;7.82;;;2.90;;
78555;SDS011;67851;51.354;7.744;2023-07-16T07:22:09;7.68;;;2.90;;
78555;SDS011;67851;51.354;7.744;2023-07-16T07:24:34;9.52;;;3.20;;
78555;SDS011;67851;51.354;7.744;2023-07-16T07:27:00;9.45;;;3.65;;
78555;SDS011;67851;51.354;7.744;2023-07-16T07:29:25;8.77;;;3.53;;
78555;SDS011;67851;51.354;7.744;2023-07-16T07:31:51;4.90;;;3.10;;
78555;SDS011;67851;51.354;7.744;2023-07-16T07:34:17;6.43;;;3.10;;
78555;SDS011;67851;51.354;7.744;2023-07-16T07:36:43;7.60;;;3.47;;
78555;SDS011;67851;51.354;7.744;2023-07-16T07:39:08;9.80;;;3.00;;
78555;SDS011;67851;51.354;7.744;2023-07-16T07:41:34;9.18;;;3.30;;
78555;SDS011;67851;51.354;7.744;2023-07-16T07:43:59;10.65;;;3.72;;
78555;SDS011;67851;51.354;7.744;2023-07-16T07:46:25;7.15;;;3.50;;
78555;SDS011;67851;51.354;7.744;2023-07-16T07:48:50;8.68;;;3.70;;
78555;SDS011;67851;51.354;7.744;2023-07-16T07:51:16;6.18;;;3.13;;
78555;SDS011;67851;51.354;7.744;2023-07-16T07:53:41;12.55;;;4.00;;
78555;SDS011;67851;51.354;7.744;2023-07-16T07:56:07;5.22;;;2.97;;
78555;SDS011;67851;51.354;7.744;2023-07-16T07:58:34;7.63;;;3.00;;
78555;SDS011;67851;51.354;7.744;2023-07-16T08:01:06;8.63;;;2.90;;
78555;SDS011;67851;51.354;7.744;2023-07-16T08:03:33;5.97;;;2.55;;
78555;SDS011;67851;51.354;7.744;2023-07-16T08:05:59;9.48;;;3.55;;
78555;SDS011;67851;51.354;7.744;2023-07-16T08:08:24;8.13;;;3.42;;
78555;SDS011;67851;51.354;7.744;2023-07-16T08:10:50;12.60;;;3.40;;
78555;SDS011;67851;51.354;7.744;2023-07-16T08:13:15;7.25;;;3.03;;
78555;SDS011;67851;51.354;7.744;2023-07-16T08:15:41;7.97;;;3.38;;
78555;SDS011;67851;51.354;7.744;2023-07-16T08:18:06;10.38;;;4.07;;
78555;SDS011;67851;51.354;7.744;2023-07-16T08:20:31;9.65;;;3.38;;
78555;SDS011;67851;51.354;7.744;2023-07-16T08:22:57;5.55;;;3.33;;
78555;SDS011;67851;51.354;7.744;2023-07-16T08:25:23;7.97;;;3.70;;
78555;SDS011;67851;51.354;7.744;2023-07-16T08:27:48;9.57;;;3.30;;
78555;SDS011;67851;51.354;7.744;2023-07-16T08:30:14;8.70;;;3.17;;
78555;SDS011;67851;51.354;7.744;2023-07-16T08:32:40;7.55;;;3.25;;
78555;SDS011;67851;51.354;7.744;2023-07-16T08:35:07;5.57;;;2.80;;
78555;SDS011;67851;51.354;7.744;2023-07-16T08:37:32;10.02;;;3.58;;
78555;SDS011;67851;51.354;7.744;2023-07-16T08:39:58;7.45;;;3.15;;
78555;SDS011;67851;51.354;7.744;2023-07-16T08:42:23;9.15;;;3.28;;
78555;SDS011;67851;51.354;7.744;2023-07-16T08:44:49;5.75;;;3.03;;
78555;SDS011;67851;51.354;7.744;2023-07-16T08:47:15;9.52;;;3.40;;
78555;SDS011;67851;51.354;7.744;2023-07-16T08:49:41;6.97;;;3.30;;
78555;SDS011;67851;51.354;7.744;2023-07-16T08:52:19;6.93;;;3.20;;
78555;SDS011;67851;51.354;7.744;2023-07-16T08:54:45;4.22;;;2.70;;
78555;SDS011;67851;51.354;7.744;2023-07-16T08:57:10;8.02;;;3.05;;
78555;SDS011;67851;51.354;7.744;2023-07-16T08:59:36;6.60;;;3.20;;
78555;SDS011;67851;51.354;7.744;2023-07-16T09:02:02;11.70;;;3.50;;
78555;SDS011;67851;51.354;7.744;2023-07-16T09:04:27;4.78;;;2.95;;
78555;SDS011;67851;51.354;7.744;2023-07-16T09:06:56;7.88;;;3.40;;
78555;SDS011;67851;51.354;7.744;2023-07-16T09:09:23;6.57;;;3.70;;
78555;SDS011;67851;51.354;7.744;2023-07-16T09:11:48;6.88;;;3.55;;
78555;SDS011;67851;51.354;7.744;2023-07-16T09:14:18;7.82;;;3.75;;
78555;SDS011;67851;51.354;7.744;2023-07-16T09:16:47;5.57;;;3.38;;
78555;SDS011;67851;51.354;7.744;2023-07-16T09:19:16;7.20;;;3.55;;
78555;SDS011;67851;51.354;7.744;2023-07-16T09:21:46;6.35;;;3.53;;
78555;SDS011;67851;51.354;7.744;2023-07-16T09:24:16;8.75;;;3.65;;
78555;SDS011;67851;51.354;7.744;2023-07-16T09:29:14;7.32;;;3.05;;
78555;SDS011;67851;51.354;7.744;2023-07-16T09:31:51;5.57;;;3.05;;
78555;SDS011;67851;51.354;7.744;2023-07-16T09:34:26;4.55;;;2.95;;
78555;SDS011;67851;51.354;7.744;2023-07-16T09:36:52;8.13;;;3.35;;
78555;SDS011;67851;51.354;7.744;2023-07-16T09:39:18;8.63;;;3.08;;
78555;SDS011;67851;51.354;7.744;2023-07-16T09:41:47;5.43;;;2.97;;
78555;SDS011;67851;51.354;7.744;2023-07-16T09:44:15;5.25;;;3.15;;
78555;SDS011;67851;51.354;7.744;2023-07-16T09:46:42;5.72;;;2.70;;
78555;SDS011;67851;51.354;7.744;2023-07-16T09:49:08;6.55;;;3.20;;
78555;SDS011;67851;51.354;7.744;2023-07-16T09:51:34;7.95;;;3.15;;
78555;SDS011;67851;51.354;7.744;2023-07-16T09:54:01;7.07;;;3.30;;
78555;SDS011;67851;51.354;7.744;2023-07-16T09:56:31;6.90;;;3.25;;
78555;SDS011;67851;51.354;7.744;2023-07-16T09:59:01;9.63;;;3.40;;
78555;SDS011;67851;51.354;7.744;2023-07-16T10:01:28;7.20;;;3.38;;
78555;SDS011;67851;51.354;7.744;2023-07-16T10:03:54;5.70;;;3.58;;
78555;SDS011;67851;51.354;7.744;2023-07-16T10:06:20;7.38;;;3.50;;
78555;SDS011;67851;51.354;7.744;2023-07-16T10:08:49;7.03;;;3.30;;
78555;SDS011;67851;51.354;7.744;2023-07-16T10:11:16;6.45;;;3.70;;
78555;SDS011;67851;51.354;7.744;2023-07-16T10:13:53;4.82;;;3.05;;
78555;SDS011;67851;51.354;7.744;2023-07-16T10:16:19;6.25;;;3.20;;
78555;SDS011;67851;51.354;7.744;2023-07-16T10:18:50;5.68;;;3.28;;
78555;SDS011;67851;51.354;7.744;2023-07-16T10:21:24;7.93;;;3.90;;
78555;SDS011;67851;51.354;7.744;2023-07-16T10:23:57;8.88;;;3.70;;
78555;SDS011;67851;51.354;7.744;2023-07-16T10:26:28;5.97;;;3.53;;
78555;SDS011;67851;51.354;7.744;2023-07-16T10:28:54;7.28;;;3.30;;
78555;SDS011;67851;51.354;7.744;2023-07-16T10:31:24;6.68;;;3.60;;
78555;SDS011;67851;51.354;7.744;2023-07-16T10:34:03;6.05;;;2.90;;
78555;SDS011;67851;51.354;7.744;2023-07-16T10:36:40;6.20;;;3.15;;
78555;SDS011;67851;51.354;7.744;2023-07-16T10:39:06;7.35;;;3.35;;
78555;SDS011;67851;51.354;7.744;2023-07-16T10:41:32;6.75;;;3.78;;
78555;SDS011;67851;51.354;7.744;2023-07-16T10:43:58;6.43;;;3.38;;
78555;SDS011;67851;51.354;7.744;2023-07-16T10:46:24;6.43;;;3.80;;
78555;SDS011;67851;51.354;7.744;2023-07-16T10:48:50;7.28;;;3.08;;
78555;SDS011;67851;51.354;7.744;2023-07-16T10:51:15;7.13;;;4.05;;
78555;SDS011;67851;51.354;7.744;2023-07-16T10:53:45;7.28;;;3.80;;
78555;SDS011;67851;51.354;7.744;2023-07-16T10:56:11;6.63;;;3.20;;
78555;SDS011;67851;51.354;7.744;2023-07-16T10:58:37;9.80;;;3.00;;
78555;SDS011;67851;51.354;7.744;2023-07-16T11:01:03;8.35;;;3.50;;
78555;SDS011;67851;51.354;7.744;2023-07-16T11:03:30;7.95;;;3.20;;
78555;SDS011;67851;51.354;7.744;2023-07-16T11:05:56;4.68;;;2.70;;
78555;SDS011;67851;51.354;7.744;2023-07-16T11:08:24;4.82;;;3.13;;
78555;SDS011;67851;51.354;7.744;2023-07-16T11:10:56;6.03;;;2.50;;
78555;SDS011;67851;51.354;7.744;2023-07-16T11:13:28;7.05;;;2.97;;
78555;SDS011;67851;51.354;7.744;2023-07-16T11:15:54;7.45;;;2.78;;
78555;SDS011;67851;51.354;7.744;2023-07-16T11:18:23;5.53;;;2.58;;
78555;SDS011;67851;51.354;7.744;2023-07-16T11:20:52;7.43;;;2.80;;
78555;SDS011;67851;51.354;7.744;2023-07-16T11:23:18;4.53;;;2.47;;
78555;SDS011;67851;51.354;7.744;2023-07-16T11:25:46;4.53;;;2.65;;
78555;SDS011;67851;51.354;7.744;2023-07-16T11:28:13;10.68;;;2.58;;
78555;SDS011;67851;51.354;7.744;2023-07-16T11:30:41;6.72;;;2.97;;
78555;SDS011;67851;51.354;7.744;2023-07-16T11:33:11;6.00;;;2.67;;
78555;SDS011;67851;51.354;7.744;2023-07-16T11:35:38;6.70;;;2.67;;
78555;SDS011;67851;51.354;7.744;2023-07-16T11:38:04;5.57;;;2.45;;
78555;SDS011;67851;51.354;7.744;2023-07-16T11:40:33;6.57;;;2.47;;
78555;SDS011;67851;51.354;7.744;2023-07-16T11:43:10;5.97;;;2.53;;
78555;SDS011;67851;51.354;7.744;2023-07-16T11:45:36;2.83;;;1.92;;
78555;SDS011;67851;51.354;7.744;2023-07-16T11:48:02;4.40;;;2.22;;
78555;SDS011;67851;51.354;7.744;2023-07-16T11:50:29;6.10;;;2.40;;
78555;SDS011;67851;51.354;7.744;2023-07-16T11:53:01;5.25;;;2.10;;
78555;SDS011;67851;51.354;7.744;2023-07-16T11:55:27;7.15;;;2.60;;
78555;SDS011;67851;51.354;7.744;2023-07-16T11:57:52;4.57;;;2.28;;
78555;SDS011;67851;51.354;7.744;2023-07-16T12:00:18;5.90;;;2.78;;
78555;SDS011;67851;51.354;7.744;2023-07-16T12:02:44;3.38;;;2.42;;
78555;SDS011;67851;51.354;7.744;2023-07-16T12:05:18;7.88;;;2.70;;
78555;SDS011;67851;51.354;7.744;2023-07-16T12:07:44;5.57;;;2.65;;
78555;SDS011;67851;51.354;7.744;2023-07-16T12:10:10;6.43;;;2.70;;
78555;SDS011;67851;51.354;7.744;2023-07-16T12:12:36;6.25;;;2.83;;
78555;SDS011;67851;51.354;7.744;2023-07-16T12:17:33;6.10;;;3.05;;
78555;SDS011;67851;51.354;7.744;2023-07-16T12:19:59;6.25;;;2.80;;
78555;SDS011;67851;51.354;7.744;2023-07-16T12:22:25;4.80;;;2.55;;
78555;SDS011;67851;51.354;7.744;2023-07-16T12:24:50;6.45;;;2.85;;
78555;SDS011;67851;51.354;7.744;2023-07-16T12:27:17;11.00;;;2.40;;
78555;SDS011;67851;51.354;7.744;2023-07-16T12:29:43;5.93;;;2.75;;
78555;SDS011;67851;51.354;7.744;2023-07-16T12:32:09;6.40;;;2.47;;
78555;SDS011;67851;51.354;7.744;2023-07-16T12:34:37;8.80;;;2.80;;
78555;SDS011;67851;51.354;7.744;2023-07-16T12:37:04;8.45;;;2.35;;
78555;SDS011;67851;51.354;7.744;2023-07-16T12:39:30;7.40;;;2.85;;
78555;SDS011;67851;51.354;7.744;2023-07-16T12:41:57;5.80;;;2.45;;
78555;SDS011;67851;51.354;7.744;2023-07-16T12:44:23;6.65;;;2.30;;
78555;SDS011;67851;51.354;7.744;2023-07-16T12:46:49;4.68;;;2.63;;
78555;SDS011;67851;51.354;7.744;2023-07-16T12:49:15;5.30;;;2.53;;
78555;SDS011;67851;51.354;7.744;2023-07-16T12:51:40;5.45;;;2.60;;
78555;SDS011;67851;51.354;7.744;2023-07-16T12:54:06;5.65;;;2.60;;
78555;SDS011;67851;51.354;7.744;2023-07-16T12:56:31;5.35;;;2.45;;
78555;SDS011;67851;51.354;7.744;2023-07-16T12:58:58;4.63;;;2.17;;
78555;SDS011;67851;51.354;7.744;2023-07-16T13:01:23;4.72;;;2.05;;
78555;SDS011;67851;51.354;7.744;2023-07-16T13:03:50;5.15;;;2.20;;
78555;SDS011;67851;51.354;7.744;2023-07-16T13:06:16;3.38;;;2.00;;
78555;SDS011;67851;51.354;7.744;2023-07-16T13:08:42;4.22;;;2.50;;
78555;SDS011;67851;51.354;7.744;2023-07-16T13:11:08;4.45;;;2.40;;
78555;SDS011;67851;51.354;7.744;2023-07-16T13:13:33;6.03;;;2.45;;
78555;SDS011;67851;51.354;7.744;2023-07-16T13:16:00;4.85;;;2.38;;
78555;SDS011;67851;51.354;7.744;2023-07-16T13:18:27;8.48;;;2.38;;
78555;SDS011;67851;51.354;7.744;2023-07-16T13:20:54;5.50;;;2.50;;
78555;SDS011;67851;51.354;7.744;2023-07-16T13:23:19;7.28;;;2.60;;
78555;SDS011;67851;51.354;7.744;2023-07-16T13:25:45;5.82;;;2.70;;
78555;SDS011;67851;51.354;7.744;2023-07-16T13:28:13;4.45;;;2.33;;
78555;SDS011;67851;51.354;7.744;2023-07-16T13:30:38;7.38;;;2.33;;
78555;SDS011;67851;51.354;7.744;2023-07-16T13:33:04;9.10;;;2.72;;
78555;SDS011;67851;51.354;7.744;2023-07-16T13:35:30;7.45;;;2.75;;
78555;SDS011;67851;51.354;7.744;2023-07-16T13:37:56;4.53;;;2.20;;
78555;SDS011;67851;51.354;7.744;2023-07-16T13:40:21;6.05;;;2.25;;
78555;SDS011;67851;51.354;7.744;2023-07-16T13:42:47;3.67;;;2.10;;
78555;SDS011;67851;51.354;7.744;2023-07-16T13:45:14;4.07;;;2.20;;
78555;SDS011;67851;51.354;7.744;2023-07-16T13:47:43;4.88;;;2.45;;
78555;SDS011;67851;51.354;7.744;2023-07-16T13:50:11;4.75;;;2.78;;
78555;SDS011;67851;51.354;7.744;2023-07-16T13:52:38;6.32;;;3.10;;
78555;SDS011;67851;51.354;7.744;2023-07-16T13:55:05;4.07;;;2.17;;
78555;SDS011;67851;51.354;7.744;2023-07-16T13:57:31;5.75;;;2.53;;
78555;SDS011;67851;51.354;7.744;2023-07-16T13:59:59;7.10;;;2.38;;
78555;SDS011;67851;51.354;7.744;2023-07-16T14:02:31;7.40;;;2.63;;
78555;SDS011;67851;51.354;7.744;2023-07-16T14:04:57;5.32;;;2.53;;
78555;SDS011;67851;51.354;7.744;2023-07-16T14:07:23;5.40;;;2.60;;
78555;SDS011;67851;51.354;7.744;2023-07-16T14:09:49;6.50;;;2.70;;
78555;SDS011;67851;51.354;7.744;2023-07-16T14:12:14;5.07;;;2.47;;
78555;SDS011;67851;51.354;7.744;2023-07-16T14:14:40;4.35;;;2.55;;
78555;SDS011;67851;51.354;7.744;2023-07-16T14:17:05;4.95;;;2.28;;
78555;SDS011;67851;51.354;7.744;2023-07-16T14:19:32;5.50;;;2.42;;
78555;SDS011;67851;51.354;7.744;2023-07-16T14:21:57;5.32;;;2.58;;
78555;SDS011;67851;51.354;7.744;2023-07-16T14:24:25;5.68;;;2.45;;
78555;SDS011;67851;51.354;7.744;2023-07-16T14:26:51;5.82;;;2.03;;
78555;SDS011;67851;51.354;7.744;2023-07-16T14:29:16;7.15;;;2.70;;
78555;SDS011;67851;51.354;7.744;2023-07-16T14:31:42;4.82;;;2.33;;
78555;SDS011;67851;51.354;7.744;2023-07-16T14:34:08;5.85;;;2.38;;
78555;SDS011;67851;51.354;7.744;2023-07-16T14:36:33;5.65;;;2.85;;
78555;SDS011;67851;51.354;7.744;2023-07-16T14:38:59;7.40;;;2.65;;
78555;SDS011;67851;51.354;7.744;2023-07-16T14:41:25;6.72;;;2.83;;
78555;SDS011;67851;51.354;7.744;2023-07-16T14:43:51;5.53;;;2.60;;
78555;SDS011;67851;51.354;7.744;2023-07-16T14:46:18;6.43;;;2.67;;
78555;SDS011;67851;51.354;7.744;2023-07-16T14:48:43;5.88;;;2.80;;
78555;SDS011;67851;51.354;7.744;2023-07-16T14:51:10;6.22;;;2.65;;
78555;SDS011;67851;51.354;7.744;2023-07-16T14:53:37;8.70;;;2.97;;
78555;SDS011;67851;51.354;7.744;2023-07-16T14:56:02;5.25;;;2.80;;